Time;durP1;ratioP1;P1;durP2;ratioP2;P2;SDS_P1;SDS_P2;PMS_P1;PMS_P2;Temp;Humidity;BMP_temperature;BMP_pressure;BME280_temperature;BME280_humidity;BME280_pressure;Samples;Min_cycle;Max_cycle;Signal;HPM_P1;HPM_P2
2023/06/11 00:01:26;;;;;;;5.90;2.97;;;;;;;18.37;60.52;100994.72;4993484;28;20030;-49
2023/06/11 00:03:53;;;;;;;6.50;2.28;;;;;;;18.42;60.85;100983.94;4993403;28;20018;-48
2023/06/11 00:06:22;;;;;;;5.85;2.88;;;;;;;18.44;60.50;100989.13;4993356;28;20026;-46
2023/06/11 00:08:52;;;;;;;6.07;2.15;;;;;;;18.52;60.16;100985.13;4993333;28;20105;-45
2023/06/11 00:11:18;;;;;;;4.90;2.20;;;;;;;18.46;59.92;100981.56;4993598;28;20023;-47
2023/06/11 00:13:45;;;;;;;5.85;1.90;;;;;;;18.34;60.75;100983.59;4993997;28;20041;-46
2023/06/11 00:16:13;;;;;;;7.13;2.50;;;;;;;18.06;60.54;100998.16;4993594;28;20026;-48
2023/06/11 00:18:41;;;;;;;5.07;2.10;;;;;;;17.61;61.76;100986.44;4993225;28;20045;-45
2023/06/11 00:21:08;;;;;;;4.97;2.20;;;;;;;17.37;62.78;101001.22;4993235;28;20093;-47
2023/06/11 00:23:36;;;;;;;2.90;1.70;;;;;;;17.11;64.34;101005.41;4993244;28;20513;-46
2023/06/11 00:26:06;;;;;;;5.20;2.05;;;;;;;17.19;63.70;101002.28;4993094;28;20031;-48
2023/06/11 00:28:33;;;;;;;3.20;1.85;;;;;;;17.21;63.51;101002.84;4994379;28;20039;-48
2023/06/11 00:31:00;;;;;;;5.28;2.00;;;;;;;17.28;64.35;101006.22;4993177;28;20033;-45
2023/06/11 00:33:27;;;;;;;5.82;2.33;;;;;;;17.17;63.80;100995.50;4994096;28;20073;-47
2023/06/11 00:35:53;;;;;;;6.38;2.38;;;;;;;17.35;64.05;100990.66;4996811;28;20493;-46
2023/06/11 00:38:23;;;;;;;4.55;1.85;;;;;;;17.32;63.21;101003.84;4996631;28;20037;-45
2023/06/11 00:40:49;;;;;;;2.92;1.50;;;;;;;17.25;63.26;100997.78;4996827;28;20118;-46
2023/06/11 00:43:21;;;;;;;3.75;1.90;;;;;;;17.03;64.85;100989.56;4996683;28;20058;-49
2023/06/11 00:45:50;;;;;;;4.20;2.28;;;;;;;16.92;64.56;100995.88;4996718;28;20033;-48
2023/06/11 00:48:19;;;;;;;4.63;1.95;;;;;;;16.71;65.18;100992.84;4996908;28;20493;-47
2023/06/11 00:50:49;;;;;;;7.05;2.53;;;;;;;16.33;66.60;100985.34;4996790;28;20114;-49
2023/06/11 00:53:21;;;;;;;6.28;3.08;;;;;;;16.47;67.36;100980.44;4996354;28;20096;-46
2023/06/11 00:55:48;;;;;;;8.07;2.50;;;;;;;16.53;67.08;100971.38;4996519;28;20038;-48
2023/06/11 00:58:17;;;;;;;4.05;2.38;;;;;;;16.33;66.67;100969.13;4996510;28;20077;-46
2023/06/11 01:00:50;;;;;;;3.45;2.22;;;;;;;16.13;67.40;100972.22;4996621;28;20375;-48
2023/06/11 01:03:21;;;;;;;4.40;1.90;;;;;;;16.17;66.74;100980.69;4996385;28;20077;-47
2023/06/11 01:06:01;;;;;;;2.55;1.83;;;;;;;16.49;66.68;100967.50;4996368;28;20026;-48
2023/06/11 01:08:31;;;;;;;4.50;1.63;;;;;;;16.63;65.67;100955.34;4996624;28;20030;-48
2023/06/11 01:11:01;;;;;;;3.85;1.55;;;;;;;16.33;66.17;100964.53;4996145;28;20101;-47
2023/06/11 01:13:28;;;;;;;2.78;1.50;;;;;;;16.27;66.62;100970.09;4996134;28;20066;-45
2023/06/11 01:16:20;;;;;;;3.65;1.88;;;;;;;16.24;67.17;100970.56;4996233;28;20041;-50
2023/06/11 01:19:03;;;;;;;3.17;1.35;;;;;;;16.30;67.66;100969.59;4996180;28;20057;-47
2023/06/11 01:21:39;;;;;;;3.90;1.70;;;;;;;16.19;67.47;100971.28;4996080;28;20034;-48
2023/06/11 01:24:09;;;;;;;4.57;2.10;;;;;;;16.32;67.16;100972.84;4996403;28;20022;-47
2023/06/11 01:26:53;;;;;;;4.28;1.75;;;;;;;16.39;67.65;100980.84;4996230;28;20034;-49
2023/06/11 01:29:23;;;;;;;6.35;2.03;;;;;;;16.38;67.58;100971.94;4996100;28;20023;-47
2023/06/11 01:31:50;;;;;;;7.03;2.08;;;;;;;16.43;66.82;100972.00;4995771;28;20037;-50
2023/06/11 01:34:17;;;;;;;6.95;2.63;;;;;;;16.28;67.35;100961.75;4995883;28;20034;-47
2023/06/11 01:36:43;;;;;;;4.15;2.05;;;;;;;16.39;67.42;100959.22;4995930;28;20101;-46
2023/06/11 01:39:11;;;;;;;3.42;1.75;;;;;;;16.37;67.36;100959.44;4995428;28;20125;-46
2023/06/11 01:41:37;;;;;;;4.18;1.70;;;;;;;16.44;67.20;100970.13;4995520;28;20037;-45
2023/06/11 01:44:04;;;;;;;8.68;2.42;;;;;;;16.43;67.38;100977.41;4995587;28;20026;-46
2023/06/11 01:46:32;;;;;;;5.25;2.33;;;;;;;16.34;67.88;100973.47;4994779;28;20430;-46
2023/06/11 01:48:58;;;;;;;9.00;2.40;;;;;;;16.43;68.11;100982.81;4995665;28;20038;-46
2023/06/11 01:51:24;;;;;;;6.72;2.05;;;;;;;16.45;67.95;100986.09;4995461;28;20453;-45
2023/06/11 01:53:51;;;;;;;5.63;2.03;;;;;;;16.49;67.31;100981.00;4995782;28;20176;-46
2023/06/11 01:56:17;;;;;;;6.80;2.13;;;;;;;16.64;66.78;100970.50;4995381;28;20359;-47
2023/06/11 01:58:45;;;;;;;7.10;2.30;;;;;;;16.92;66.06;100963.44;4995444;28;20101;-48
2023/06/11 02:01:12;;;;;;;7.47;2.38;;;;;;;17.00;65.36;100963.03;4995159;28;20031;-50
2023/06/11 02:03:40;;;;;;;5.72;2.00;;;;;;;17.21;64.18;100964.16;4995197;28;20362;-48
2023/06/11 02:06:07;;;;;;;6.57;1.95;;;;;;;17.24;63.94;100969.09;4995168;28;20147;-46
2023/06/11 02:08:34;;;;;;;5.72;2.15;;;;;;;17.25;63.84;100960.72;4995173;28;20026;-48
2023/06/11 02:11:01;;;;;;;6.25;2.08;;;;;;;17.13;64.43;100957.28;4995076;28;20444;-45
2023/06/11 02:13:30;;;;;;;8.38;2.03;;;;;;;17.12;64.41;100953.78;4995193;28;20113;-45
2023/06/11 02:15:59;;;;;;;6.97;2.45;;;;;;;17.20;64.04;100963.34;4995082;28;20029;-46
2023/06/11 02:18:25;;;;;;;7.93;2.50;;;;;;;17.35;63.58;100973.59;4994934;28;20022;-45
2023/06/11 02:20:52;;;;;;;6.82;1.83;;;;;;;17.41;62.90;100973.41;4995126;28;20030;-46
2023/06/11 02:23:18;;;;;;;7.00;2.22;;;;;;;17.36;63.15;100983.34;4994963;28;20479;-47
2023/06/11 02:25:44;;;;;;;5.70;2.35;;;;;;;17.09;63.90;100972.38;4994820;28;20109;-46
2023/06/11 02:28:11;;;;;;;6.93;2.80;;;;;;;17.08;64.11;100971.56;4995147;28;20030;-47
2023/06/11 02:30:37;;;;;;;5.88;2.13;;;;;;;17.25;63.27;100976.13;4994820;28;20014;-46
2023/06/11 02:33:03;;;;;;;7.53;1.88;;;;;;;16.84;64.09;100976.31;4994745;28;20037;-46
2023/06/11 02:35:29;;;;;;;6.32;2.00;;;;;;;16.59;65.23;100971.22;4993551;28;20026;-46
2023/06/11 02:37:56;;;;;;;6.80;2.33;;;;;;;16.29;66.40;100973.34;4994609;28;20022;-45
2023/06/11 02:40:22;;;;;;;5.55;1.95;;;;;;;16.10;66.96;100968.16;4994540;28;20185;-46
2023/06/11 02:42:48;;;;;;;9.95;2.92;;;;;;;15.77;68.16;100970.69;4994605;28;20029;-45
2023/06/11 02:45:15;;;;;;;13.00;2.70;;;;;;;15.61;69.49;100968.69;4994416;28;20030;-49
2023/06/11 02:47:41;;;;;;;9.63;2.70;;;;;;;15.70;69.06;100970.78;4994665;28;20026;-46
2023/06/11 02:50:07;;;;;;;10.63;2.58;;;;;;;15.35;70.37;100967.28;4994447;28;20034;-47
2023/06/11 02:52:33;;;;;;;11.07;2.95;;;;;;;15.49;70.11;100969.50;4994311;28;20030;-48
2023/06/11 02:55:00;;;;;;;7.40;2.65;;;;;;;15.48;70.47;100967.84;4994650;28;20472;-48
2023/06/11 02:57:26;;;;;;;5.60;2.10;;;;;;;15.42;70.47;100968.78;4994308;28;20045;-44
2023/06/11 02:59:52;;;;;;;7.35;2.30;;;;;;;15.14;71.02;100974.88;4994237;28;20030;-47
2023/06/11 03:02:18;;;;;;;7.47;2.42;;;;;;;14.85;72.23;100971.19;4994967;28;20037;-49
2023/06/11 03:04:45;;;;;;;8.35;2.83;;;;;;;14.69;73.19;100956.50;4994418;28;20022;-44
2023/06/11 03:07:12;;;;;;;9.10;2.45;;;;;;;14.55;73.92;100956.91;4994181;28;20459;-46
2023/06/11 03:09:38;;;;;;;7.55;2.28;;;;;;;14.31;74.56;100969.44;4993891;28;20037;-46
2023/06/11 03:12:05;;;;;;;9.55;2.50;;;;;;;14.20;75.22;100955.69;4994093;28;20034;-45
2023/06/11 03:14:31;;;;;;;5.40;2.53;;;;;;;14.00;76.39;100965.91;4993926;28;20471;-48
2023/06/11 03:16:58;;;;;;;9.10;2.35;;;;;;;13.94;76.96;100962.25;4994022;28;20109;-48
2023/06/11 03:19:24;;;;;;;11.60;2.90;;;;;;;13.95;77.21;100966.59;4994534;28;20085;-45
2023/06/11 03:21:50;;;;;;;8.57;2.30;;;;;;;13.99;77.21;100966.94;4993970;28;20046;-46
2023/06/11 03:24:17;;;;;;;6.03;2.33;;;;;;;13.96;76.97;100970.91;4993833;28;20026;-45
2023/06/11 03:26:43;;;;;;;8.85;2.70;;;;;;;13.88;77.03;100967.69;4992418;28;20030;-45
2023/06/11 03:29:09;;;;;;;6.10;2.70;;;;;;;13.77;77.55;100966.59;4993738;28;20022;-44
2023/06/11 03:31:37;;;;;;;8.93;2.38;;;;;;;13.65;78.28;100963.78;4993490;28;20058;-47
2023/06/11 03:34:03;;;;;;;4.55;2.53;;;;;;;13.67;78.62;100956.34;4993858;28;20022;-46
2023/06/11 03:36:29;;;;;;;6.90;2.35;;;;;;;13.70;78.64;100952.38;4993584;28;20482;-45
2023/06/11 03:38:56;;;;;;;8.30;2.30;;;;;;;13.71;79.00;100940.56;4993492;28;20051;-47
2023/06/11 03:41:22;;;;;;;6.25;2.75;;;;;;;13.79;79.00;100940.28;4993750;28;20033;-45
2023/06/11 03:43:48;;;;;;;11.65;3.00;;;;;;;13.77;78.94;100945.06;4993594;28;20530;-47
2023/06/11 03:46:15;;;;;;;11.13;3.50;;;;;;;13.72;78.93;100943.03;4993960;28;20386;-47
2023/06/11 03:48:41;;;;;;;6.18;2.63;;;;;;;13.74;79.05;100945.50;4993652;28;20029;-45
2023/06/11 03:51:07;;;;;;;9.38;3.03;;;;;;;13.75;79.20;100939.06;4993659;28;20087;-44
2023/06/11 03:53:33;;;;;;;9.68;2.35;;;;;;;13.84;78.38;100953.06;4993477;28;20533;-46
2023/06/11 03:56:00;;;;;;;5.80;2.53;;;;;;;13.68;78.51;100963.38;4993579;28;20023;-45
2023/06/11 03:58:26;;;;;;;7.82;2.55;;;;;;;13.71;78.28;100960.25;4993479;28;20082;-46
2023/06/11 04:00:52;;;;;;;7.95;2.58;;;;;;;13.64;78.79;100955.97;4993844;28;20210;-45
2023/06/11 04:03:18;;;;;;;8.27;2.40;;;;;;;13.59;78.98;100966.56;5008724;28;20042;-45
2023/06/11 04:05:45;;;;;;;7.55;2.30;;;;;;;13.58;78.59;100967.63;4993963;28;20058;-47
2023/06/11 04:08:11;;;;;;;4.43;2.20;;;;;;;13.57;78.33;100968.66;4994157;28;20035;-44
2023/06/11 04:10:37;;;;;;;8.23;2.30;;;;;;;13.47;78.02;100969.16;4997659;28;20022;-47
2023/06/11 04:13:03;;;;;;;6.00;2.22;;;;;;;13.44;78.46;100978.50;4997285;28;20117;-47
2023/06/11 04:15:31;;;;;;;6.82;2.85;;;;;;;13.50;78.44;100971.41;4997286;28;20026;-48
2023/06/11 04:17:57;;;;;;;5.45;2.20;;;;;;;13.42;79.14;100977.88;4997704;28;20026;-48
2023/06/11 04:20:23;;;;;;;6.40;2.42;;;;;;;13.50;78.81;100976.81;4997499;28;20093;-46
2023/06/11 04:22:49;;;;;;;9.50;2.55;;;;;;;13.60;78.76;100979.81;4997099;28;20395;-45
2023/06/11 04:25:16;;;;;;;6.72;2.83;;;;;;;13.47;79.32;100983.44;4997157;28;20077;-45
2023/06/11 04:27:43;;;;;;;4.85;2.35;;;;;;;13.48;79.62;100986.94;4996941;28;20105;-45
2023/06/11 04:30:12;;;;;;;9.13;3.35;;;;;;;13.45;80.01;100990.09;4997268;28;20052;-48
2023/06/11 04:32:40;;;;;;;8.95;3.53;;;;;;;13.44;80.18;100983.06;4997428;28;20117;-46
2023/06/11 04:35:07;;;;;;;7.38;3.00;;;;;;;13.57;79.80;100976.72;4996783;28;20038;-48
2023/06/11 04:37:40;;;;;;;12.65;2.90;;;;;;;13.58;80.18;100984.56;4996910;28;20088;-47
2023/06/11 04:40:10;;;;;;;11.20;3.05;;;;;;;13.52;80.26;100972.00;4996639;28;20101;-46
2023/06/11 04:42:40;;;;;;;10.55;3.10;;;;;;;13.41;81.14;100984.31;4996809;28;20073;-46
2023/06/11 04:45:09;;;;;;;8.60;3.80;;;;;;;13.48;80.65;100970.81;4996717;28;20030;-44
2023/06/11 04:47:36;;;;;;;7.35;3.05;;;;;;;13.48;80.81;100971.63;4996800;28;20045;-46
2023/06/11 04:50:05;;;;;;;5.18;2.22;;;;;;;13.55;80.50;100976.09;4996694;28;20026;-48
2023/06/11 04:52:37;;;;;;;7.35;3.17;;;;;;;13.63;80.31;100973.97;4996476;28;20085;-48
2023/06/11 04:55:04;;;;;;;10.27;3.70;;;;;;;13.68;80.13;100973.31;4996798;28;20058;-48
2023/06/11 04:57:34;;;;;;;7.40;2.88;;;;;;;13.66;80.27;100970.03;4996490;28;20517;-47
2023/06/11 05:00:01;;;;;;;13.43;3.60;;;;;;;13.64;80.34;100975.59;4996430;28;20114;-47
2023/06/11 05:02:28;;;;;;;10.20;3.92;;;;;;;13.58;80.87;100970.31;4996424;28;20050;-44
2023/06/11 05:04:54;;;;;;;6.35;3.38;;;;;;;13.55;80.95;100974.28;4996421;28;20026;-46
2023/06/11 05:07:21;;;;;;;8.55;3.30;;;;;;;13.56;80.88;100964.34;4996327;28;20080;-48
2023/06/11 05:09:47;;;;;;;16.17;3.70;;;;;;;13.54;81.03;100972.59;4996693;28;20386;-48
2023/06/11 05:12:14;;;;;;;8.05;3.72;;;;;;;13.61;81.09;100975.25;4996210;28;20487;-48
2023/06/11 05:14:40;;;;;;;15.55;4.22;;;;;;;13.70;81.08;100976.59;4996209;28;20034;-47
2023/06/11 05:17:06;;;;;;;9.68;3.00;;;;;;;13.75;81.03;100976.72;4996118;28;20525;-45
2023/06/11 05:19:32;;;;;;;10.95;3.90;;;;;;;13.72;80.99;100971.81;4995337;28;20022;-48
2023/06/11 05:21:59;;;;;;;11.80;3.72;;;;;;;13.85;80.40;100977.03;4995944;28;20157;-44
2023/06/11 05:24:29;;;;;;;20.30;4.35;;;;;;;13.76;80.79;100981.06;4996061;28;20030;-45
2023/06/11 05:26:56;;;;;;;10.57;3.88;;;;;;;13.84;80.63;100986.16;4995814;28;20026;-45
2023/06/11 05:29:24;;;;;;;10.02;3.85;;;;;;;13.85;80.75;100987.81;4995948;28;20038;-44
2023/06/11 05:31:50;;;;;;;12.15;3.60;;;;;;;13.85;80.85;100989.69;4995899;28;20034;-45
2023/06/11 05:34:17;;;;;;;6.90;3.40;;;;;;;13.86;80.58;100980.56;4996116;28;20022;-48
2023/06/11 05:36:45;;;;;;;10.27;3.22;;;;;;;13.91;80.22;100984.22;4995851;28;20038;-49
2023/06/11 05:39:12;;;;;;;6.93;2.60;;;;;;;13.99;79.32;100975.00;4996380;28;20487;-46
2023/06/11 05:41:39;;;;;;;13.20;3.20;;;;;;;13.91;79.39;100969.94;4996440;28;20106;-48
2023/06/11 05:44:05;;;;;;;7.72;2.78;;;;;;;14.02;79.35;100976.44;4995714;28;20026;-47
2023/06/11 05:46:32;;;;;;;11.60;2.92;;;;;;;13.96;79.45;100978.97;4994249;28;20431;-49
2023/06/11 05:48:59;;;;;;;9.25;2.70;;;;;;;13.96;79.14;100981.69;4995942;28;20041;-49
2023/06/11 05:51:25;;;;;;;5.10;2.92;;;;;;;13.99;79.64;100975.00;4995489;28;20030;-48
2023/06/11 05:53:51;;;;;;;8.10;3.17;;;;;;;13.97;79.14;100972.56;4995465;28;20030;-48
2023/06/11 05:56:18;;;;;;;8.55;2.83;;;;;;;14.03;78.92;100970.81;4995639;28;20495;-47
2023/06/11 05:58:44;;;;;;;5.85;2.70;;;;;;;14.06;79.01;100958.81;4995490;28;20081;-48
2023/06/11 06:01:12;;;;;;;6.22;2.70;;;;;;;13.98;79.38;100955.34;4995258;28;20048;-46
2023/06/11 06:03:38;;;;;;;8.30;2.97;;;;;;;14.02;78.68;100963.81;4995167;28;20113;-48
2023/06/11 06:06:04;;;;;;;6.22;2.75;;;;;;;13.96;79.33;100964.72;4995382;28;20034;-47
2023/06/11 06:08:31;;;;;;;7.30;2.85;;;;;;;13.97;79.46;100961.78;4995222;28;20069;-45
2023/06/11 06:10:58;;;;;;;9.07;2.80;;;;;;;13.96;79.58;100957.47;4995007;28;20030;-47
2023/06/11 06:13:25;;;;;;;7.85;2.42;;;;;;;13.94;79.58;100956.06;4995026;28;20065;-48
2023/06/11 06:15:52;;;;;;;5.30;2.90;;;;;;;14.10;78.92;100959.97;4995025;28;20451;-48
2023/06/11 06:18:19;;;;;;;4.35;2.63;;;;;;;14.00;78.90;100953.28;4995088;28;20034;-46
2023/06/11 06:20:46;;;;;;;5.68;2.53;;;;;;;13.97;79.28;100963.66;4994987;28;20022;-49
2023/06/11 06:23:12;;;;;;;6.68;3.13;;;;;;;14.05;78.84;100965.22;4995172;28;20026;-48
2023/06/11 06:25:39;;;;;;;11.68;3.10;;;;;;;13.69;80.09;100964.19;4994863;28;20106;-45
2023/06/11 06:28:05;;;;;;;4.65;2.35;;;;;;;13.86;79.54;100959.84;4994770;28;20490;-48
2023/06/11 06:30:33;;;;;;;5.30;2.90;;;;;;;13.86;79.59;100956.34;4994776;28;20036;-47
2023/06/11 06:33:00;;;;;;;6.05;3.08;;;;;;;13.89;79.09;100958.59;4994252;28;20026;-48
2023/06/11 06:35:26;;;;;;;6.15;2.88;;;;;;;13.85;79.15;100955.53;4994605;28;20383;-45
2023/06/11 06:37:53;;;;;;;7.80;3.03;;;;;;;13.81;80.00;100957.00;4994853;28;20535;-48
2023/06/11 06:40:19;;;;;;;8.18;2.83;;;;;;;13.79;80.11;100959.09;4994439;28;20046;-44
2023/06/11 06:42:45;;;;;;;6.60;2.70;;;;;;;13.81;80.13;100953.50;4994429;28;20152;-45
2023/06/11 06:45:12;;;;;;;8.20;2.83;;;;;;;13.86;79.64;100962.53;4994279;28;20027;-45
2023/06/11 06:47:38;;;;;;;6.05;3.00;;;;;;;13.80;79.64;100955.38;5009482;28;20022;-46
2023/06/11 06:50:04;;;;;;;5.15;2.75;;;;;;;13.85;79.56;100952.81;4994367;28;20026;-46
2023/06/11 06:52:31;;;;;;;6.97;2.60;;;;;;;13.90;79.15;100950.28;4994386;28;20031;-45
2023/06/11 06:54:58;;;;;;;11.82;3.03;;;;;;;13.94;78.75;100956.88;4994598;28;20105;-46
2023/06/11 06:57:24;;;;;;;8.27;3.03;;;;;;;13.87;79.17;100956.09;4994264;28;20057;-45
2023/06/11 06:59:50;;;;;;;10.57;3.00;;;;;;;13.84;79.35;100945.81;4994249;28;20046;-45
2023/06/11 07:02:16;;;;;;;7.05;2.50;;;;;;;13.85;79.30;100949.31;4994124;28;20022;-49
2023/06/11 07:04:43;;;;;;;7.30;2.95;;;;;;;13.94;78.40;100951.50;4994706;28;20033;-45
2023/06/11 07:07:09;;;;;;;8.43;3.00;;;;;;;14.00;78.67;100947.91;4994126;28;20050;-45
2023/06/11 07:09:36;;;;;;;3.90;2.75;;;;;;;14.06;77.87;100940.78;5009107;28;20105;-44
2023/06/11 07:12:02;;;;;;;8.10;3.28;;;;;;;14.11;77.06;100940.94;4993945;28;20109;-46
2023/06/11 07:14:28;;;;;;;11.18;3.53;;;;;;;13.98;78.01;100936.50;4993963;28;20026;-45
2023/06/11 07:16:55;;;;;;;6.65;3.47;;;;;;;14.06;77.21;100930.03;4993919;28;20431;-45
2023/06/11 07:19:21;;;;;;;5.38;3.40;;;;;;;14.00;77.81;100925.53;4993849;28;20033;-45
2023/06/11 07:21:47;;;;;;;8.73;4.00;;;;;;;14.02;78.38;100934.19;4993802;28;20442;-45
2023/06/11 07:24:13;;;;;;;8.45;3.58;;;;;;;13.98;78.02;100933.81;4994045;28;20029;-45
2023/06/11 07:26:42;;;;;;;9.65;3.25;;;;;;;13.92;78.63;100931.22;4993772;28;20037;-45
2023/06/11 07:29:08;;;;;;;8.65;3.45;;;;;;;13.98;78.71;100936.50;4993659;28;20026;-46
2023/06/11 07:31:34;;;;;;;6.38;3.17;;;;;;;14.09;77.86;100932.25;4993617;28;20475;-47
2023/06/11 07:34:00;;;;;;;8.60;3.53;;;;;;;14.16;77.92;100942.94;4993453;28;20034;-45
2023/06/11 07:36:27;;;;;;;9.05;3.28;;;;;;;14.15;77.55;100939.41;4993725;28;20027;-45
2023/06/11 07:38:53;;;;;;;11.02;3.03;;;;;;;14.18;77.99;100935.44;4993752;28;20049;-48
2023/06/11 07:41:19;;;;;;;7.38;3.42;;;;;;;14.22;77.62;100932.09;4993618;28;20502;-46
2023/06/11 07:43:45;;;;;;;10.55;3.90;;;;;;;14.06;78.48;100930.03;4992760;28;20487;-49
2023/06/11 07:46:15;;;;;;;8.93;3.83;;;;;;;14.03;78.79;100930.47;4993468;28;20027;-49
2023/06/11 07:48:41;;;;;;;7.80;3.13;;;;;;;14.08;78.40;100913.63;4993609;28;20030;-49
2023/06/11 07:51:07;;;;;;;10.25;3.58;;;;;;;14.18;78.06;100916.59;4993569;28;20022;-49
2023/06/11 07:53:34;;;;;;;11.00;4.00;;;;;;;14.06;78.62;100921.94;4993325;28;20065;-47
2023/06/11 07:56:00;;;;;;;9.30;3.42;;;;;;;14.13;78.69;100921.84;4993427;28;20038;-48
2023/06/11 07:58:26;;;;;;;6.53;3.72;;;;;;;14.16;78.58;100916.84;4993477;28;20034;-45
2023/06/11 08:00:52;;;;;;;6.93;3.33;;;;;;;14.12;78.63;100912.13;4993523;28;20065;-45
2023/06/11 08:03:19;;;;;;;7.90;4.05;;;;;;;14.15;78.06;100911.66;4993636;28;20518;-46
2023/06/11 08:05:45;;;;;;;9.85;3.92;;;;;;;14.18;77.64;100911.22;4993308;28;20030;-45
2023/06/11 08:08:11;;;;;;;8.30;3.65;;;;;;;14.18;77.88;100903.16;4993271;28;20018;-46
2023/06/11 08:10:38;;;;;;;9.57;4.03;;;;;;;14.14;77.98;100902.78;4993383;28;20487;-45
2023/06/11 08:13:04;;;;;;;8.85;3.92;;;;;;;14.21;77.48;100903.53;4993480;28;20041;-45
2023/06/11 08:15:31;;;;;;;7.40;3.60;;;;;;;14.18;78.06;100903.16;4993183;28;20106;-45
2023/06/11 08:17:57;;;;;;;10.40;4.78;;;;;;;14.16;77.91;100907.94;4993244;28;20053;-46
2023/06/11 08:20:24;;;;;;;8.98;3.55;;;;;;;14.03;78.56;100913.50;4993176;28;20487;-45
2023/06/11 08:22:50;;;;;;;12.57;3.58;;;;;;;14.03;78.39;100911.63;4993941;28;20061;-45
2023/06/11 08:25:16;;;;;;;10.30;3.67;;;;;;;14.11;78.11;100902.44;4993155;28;20145;-46
2023/06/11 08:27:42;;;;;;;10.07;4.32;;;;;;;14.13;78.56;100892.25;4993186;28;20026;-46
2023/06/11 08:30:09;;;;;;;9.38;3.70;;;;;;;14.07;78.65;100879.69;4993050;28;20018;-46
2023/06/11 08:32:35;;;;;;;14.07;3.90;;;;;;;13.97;78.67;100883.75;4993075;28;20030;-46
2023/06/11 08:35:01;;;;;;;10.82;3.78;;;;;;;13.87;79.26;100882.63;4993296;28;20034;-46
2023/06/11 08:37:27;;;;;;;12.15;4.82;;;;;;;13.89;78.96;100892.16;4993457;28;20033;-45
2023/06/11 08:39:54;;;;;;;7.35;3.75;;;;;;;13.98;78.67;100884.56;4992933;28;20054;-49
2023/06/11 08:42:20;;;;;;;12.30;4.53;;;;;;;13.95;79.01;100882.34;4993080;28;20030;-47
2023/06/11 08:44:46;;;;;;;8.93;3.95;;;;;;;13.79;79.83;100878.41;4993315;28;20030;-48
2023/06/11 08:47:14;;;;;;;10.15;3.70;;;;;;;13.97;79.05;100872.16;4992865;28;20030;-45
2023/06/11 08:49:45;;;;;;;13.23;4.63;;;;;;;13.91;78.92;100865.81;4992975;28;20109;-45
2023/06/11 08:52:14;;;;;;;9.50;4.15;;;;;;;13.98;78.31;100866.53;4993265;28;20360;-45
2023/06/11 08:54:40;;;;;;;11.57;4.07;;;;;;;13.94;78.61;100875.31;4994175;28;20033;-45
2023/06/11 08:57:07;;;;;;;10.20;4.10;;;;;;;13.86;78.75;100864.84;4996798;28;20101;-44
2023/06/11 08:59:33;;;;;;;10.85;4.10;;;;;;;13.84;79.14;100866.97;4996475;28;20030;-49
2023/06/11 09:02:00;;;;;;;12.98;4.70;;;;;;;13.52;80.55;100872.50;4996339;28;20026;-47
2023/06/11 09:04:26;;;;;;;14.10;4.60;;;;;;;13.65;80.61;100860.78;4996320;28;20026;-46
2023/06/11 09:06:58;;;;;;;7.82;3.80;;;;;;;13.61;80.62;100848.84;4996350;28;20027;-46
2023/06/11 09:09:25;;;;;;;14.25;4.45;;;;;;;13.64;80.57;100845.69;4996867;28;20028;-45
2023/06/11 09:11:51;;;;;;;15.27;3.97;;;;;;;13.58;80.40;100850.09;4996059;28;20073;-46
2023/06/11 09:14:18;;;;;;;10.00;4.45;;;;;;;13.61;80.90;100843.47;4996135;28;20494;-46
2023/06/11 09:16:46;;;;;;;6.93;3.80;;;;;;;13.68;80.82;100842.31;4996005;28;20037;-48
2023/06/11 09:19:15;;;;;;;8.95;3.60;;;;;;;13.66;80.79;100835.53;4996458;28;20053;-46
2023/06/11 09:21:56;;;;;;;13.30;4.22;;;;;;;13.56;80.84;100835.25;4996496;28;20030;-45
2023/06/11 09:24:24;;;;;;;9.82;4.15;;;;;;;13.59;81.25;100832.09;4995955;28;20110;-45
2023/06/11 09:26:55;;;;;;;11.85;4.32;;;;;;;13.49;81.54;100838.00;4995925;28;20046;-45
2023/06/11 09:29:22;;;;;;;9.27;3.90;;;;;;;13.51;81.54;100832.41;4996234;28;20026;-44
2023/06/11 09:32:01;;;;;;;13.43;4.18;;;;;;;13.50;80.87;100831.59;4995738;28;20029;-45
2023/06/11 09:34:27;;;;;;;11.20;4.28;;;;;;;13.47;81.62;100819.41;4995783;28;20026;-45
2023/06/11 09:36:54;;;;;;;10.73;4.65;;;;;;;13.45;81.91;100823.38;4995643;28;20027;-45
2023/06/11 09:39:20;;;;;;;12.48;4.22;;;;;;;13.47;82.39;100824.78;4995533;28;20097;-46
2023/06/11 09:41:48;;;;;;;8.07;3.80;;;;;;;13.44;82.57;100825.25;4995696;28;20033;-46
2023/06/11 09:44:16;;;;;;;14.27;4.10;;;;;;;13.47;82.63;100822.09;4995556;28;20491;-45
2023/06/11 09:46:42;;;;;;;7.72;3.88;;;;;;;13.33;82.98;100812.56;4995517;28;20105;-49
2023/06/11 09:49:11;;;;;;;10.05;3.97;;;;;;;13.16;83.08;100812.31;4995468;28;20162;-47
2023/06/11 09:51:39;;;;;;;10.38;3.97;;;;;;;13.20;83.18;100818.84;4995471;28;20030;-48
2023/06/11 09:54:10;;;;;;;14.85;4.68;;;;;;;13.19;83.15;100819.09;4995346;28;20482;-45
2023/06/11 09:56:37;;;;;;;13.55;4.65;;;;;;;13.19;83.22;100829.84;4995429;28;20030;-47
2023/06/11 09:59:05;;;;;;;13.75;4.85;;;;;;;13.09;83.75;100821.47;4995418;28;20109;-48
2023/06/11 10:01:33;;;;;;;15.40;5.13;;;;;;;13.04;84.07;100829.38;4995297;28;20026;-48
2023/06/11 10:04:00;;;;;;;11.65;4.43;;;;;;;12.97;84.24;100836.69;4995628;28;20534;-47
2023/06/11 10:06:32;;;;;;;11.50;4.07;;;;;;;13.02;83.82;100834.16;4994503;28;20081;-46
2023/06/11 10:09:01;;;;;;;8.68;4.35;;;;;;;13.01;83.28;100837.88;4995104;28;20033;-46
2023/06/11 10:11:30;;;;;;;10.95;5.20;;;;;;;12.94;84.07;100828.03;4995341;28;20426;-48
2023/06/11 10:14:00;;;;;;;13.90;4.57;;;;;;;12.82;84.96;100827.09;4995222;28;20057;-48
2023/06/11 10:16:28;;;;;;;9.60;4.25;;;;;;;12.88;84.44;100828.94;4995081;28;20022;-45
2023/06/11 10:19:04;;;;;;;12.68;4.28;;;;;;;12.92;84.51;100821.22;4995100;28;20066;-46
2023/06/11 10:21:36;;;;;;;11.45;4.53;;;;;;;12.97;83.89;100821.38;4994884;28;20479;-48
2023/06/11 10:24:03;;;;;;;10.73;3.53;;;;;;;13.03;83.60;100819.66;4994802;28;20030;-47
2023/06/11 10:26:35;;;;;;;10.15;4.45;;;;;;;12.97;83.85;100809.81;4994840;28;20029;-48
2023/06/11 10:29:09;;;;;;;12.45;4.38;;;;;;;13.00;83.73;100812.06;4994807;28;20607;-46
2023/06/11 10:31:43;;;;;;;10.55;4.20;;;;;;;13.07;83.21;100812.81;4994849;28;20109;-48
2023/06/11 10:34:14;;;;;;;16.20;5.07;;;;;;;13.01;83.56;100805.66;4994593;28;20038;-48
2023/06/11 10:36:41;;;;;;;14.07;4.38;;;;;;;12.99;83.83;100797.78;4994718;28;20033;-45
2023/06/11 10:39:09;;;;;;;10.30;4.45;;;;;;;13.05;83.32;100798.78;4994470;28;20049;-45
2023/06/11 10:41:41;;;;;;;10.55;4.60;;;;;;;13.05;83.70;100812.22;4994642;28;20047;-45
2023/06/11 10:44:11;;;;;;;10.27;4.25;;;;;;;13.00;84.11;100804.00;4994333;28;20032;-47
2023/06/11 10:46:53;;;;;;;11.55;4.47;;;;;;;12.99;83.49;100807.72;4994361;28;20026;-48
2023/06/11 10:49:25;;;;;;;10.90;3.78;;;;;;;13.07;83.45;100804.75;4994543;28;20026;-48
2023/06/11 10:51:52;;;;;;;10.13;4.25;;;;;;;13.13;83.57;100814.59;4994278;28;20025;-48
2023/06/11 10:54:26;;;;;;;13.68;4.82;;;;;;;13.15;83.69;100818.69;4994230;28;20027;-49
2023/06/11 10:56:54;;;;;;;13.65;4.20;;;;;;;13.10;83.91;100810.50;4993990;28;20022;-48
2023/06/11 10:59:21;;;;;;;15.70;4.70;;;;;;;13.09;84.02;100814.22;5010008;28;20023;-46
2023/06/11 11:01:47;;;;;;;8.60;4.03;;;;;;;13.15;84.07;100807.94;4994248;28;20026;-49
2023/06/11 11:04:13;;;;;;;11.60;4.55;;;;;;;13.08;84.58;100809.06;4994093;28;20395;-45
2023/06/11 11:06:43;;;;;;;7.90;4.28;;;;;;;13.08;84.33;100801.84;4994148;28;20037;-48
2023/06/11 11:09:11;;;;;;;7.75;3.80;;;;;;;13.16;83.96;100808.81;4994083;28;20033;-49
2023/06/11 11:11:41;;;;;;;12.43;4.43;;;;;;;13.08;84.21;100806.38;4994025;28;20394;-45
2023/06/11 11:14:07;;;;;;;17.15;4.35;;;;;;;13.10;84.20;100810.50;4993983;28;20570;-45
2023/06/11 11:16:34;;;;;;;11.75;4.10;;;;;;;13.19;83.20;100809.16;4994465;28;20027;-48
2023/06/11 11:19:00;;;;;;;12.27;4.13;;;;;;;13.13;83.81;100814.59;4993038;28;20040;-45
2023/06/11 11:21:30;;;;;;;11.32;4.57;;;;;;;13.20;83.32;100807.28;4994263;28;20018;-46
2023/06/11 11:23:56;;;;;;;10.48;3.85;;;;;;;13.24;83.08;100805.84;4993751;28;20030;-46